createdAt,value
2019-02-17T00:00:48.203Z,22.62
2019-02-17T00:03:17.047Z,22.57
2019-02-17T00:05:45.899Z,22.53
2019-02-17T00:08:14.865Z,22.50
2019-02-17T00:10:43.767Z,22.47
2019-02-17T00:13:12.618Z,22.43
2019-02-17T00:15:41.498Z,22.38
2019-02-17T00:18:10.431Z,22.32
2019-02-17T00:20:39.313Z,22.28
2019-02-17T00:23:08.097Z,22.25
2019-02-17T00:25:36.949Z,22.22
2019-02-17T00:28:05.849Z,22.20
2019-02-17T00:30:34.667Z,22.15
2019-02-17T00:33:03.539Z,22.12
2019-02-17T00:35:32.660Z,22.09
2019-02-17T00:38:01.474Z,22.05
2019-02-17T00:40:30.280Z,22.04
2019-02-17T00:42:59.238Z,22.00
2019-02-17T00:45:28.123Z,21.98
2019-02-17T00:47:57.016Z,21.94
2019-02-17T00:50:25.733Z,21.89
2019-02-17T00:52:54.447Z,21.86
2019-02-17T00:55:23.339Z,21.82
2019-02-17T00:57:52.249Z,21.79
2019-02-17T01:00:21.158Z,21.76
2019-02-17T01:02:49.966Z,21.74
2019-02-17T01:05:18.751Z,21.70
2019-02-17T01:07:47.611Z,21.69
2019-02-17T01:10:16.433Z,21.65
2019-02-17T01:12:45.234Z,21.62
2019-02-17T01:15:14.161Z,21.58
2019-02-17T01:17:43.036Z,21.55
2019-02-17T01:20:11.971Z,21.53
2019-02-17T01:22:40.855Z,21.51
2019-02-17T01:25:09.706Z,21.48
2019-02-17T01:27:38.603Z,21.47
2019-02-17T01:30:07.871Z,21.46
2019-02-17T01:32:36.671Z,21.41
2019-02-17T01:35:05.880Z,21.39
2019-02-17T01:37:34.761Z,21.36
2019-02-17T01:40:03.915Z,21.34
2019-02-17T01:42:32.750Z,21.31
2019-02-17T01:45:01.641Z,21.29
2019-02-17T01:47:30.495Z,21.25
2019-02-17T01:49:59.306Z,21.23
2019-02-17T01:52:28.196Z,21.21
2019-02-17T01:54:57.059Z,21.19
2019-02-17T01:57:25.993Z,21.16
2019-02-17T01:59:54.816Z,21.13
2019-02-17T02:02:23.628Z,21.12
2019-02-17T02:04:52.527Z,21.08
2019-02-17T02:07:21.247Z,21.06
2019-02-17T02:09:50.050Z,21.04
2019-02-17T02:12:18.891Z,21.02
2019-02-17T02:14:47.623Z,20.99
2019-02-17T02:17:16.494Z,20.98
2019-02-17T02:19:45.498Z,20.95
2019-02-17T02:22:14.370Z,20.93
2019-02-17T02:24:43.222Z,20.92
2019-02-17T02:27:12.024Z,20.89
2019-02-17T02:29:41.508Z,20.87
2019-02-17T02:32:10.568Z,20.85
2019-02-17T02:34:39.293Z,20.82
2019-02-17T02:37:08.107Z,20.78
2019-02-17T02:39:36.975Z,20.78
2019-02-17T02:42:05.904Z,20.76
2019-02-17T02:44:34.746Z,20.74
2019-02-17T02:47:03.573Z,20.72
2019-02-17T02:49:32.384Z,20.70
2019-02-17T02:52:01.281Z,20.69
2019-02-17T02:54:30.160Z,20.65
2019-02-17T02:56:58.976Z,20.65
2019-02-17T02:59:27.842Z,20.62
2019-02-17T03:01:56.643Z,20.61
2019-02-17T03:04:25.419Z,20.59
2019-02-17T03:06:59.704Z,20.57
2019-02-17T03:09:28.494Z,20.55
2019-02-17T03:11:57.241Z,20.53
2019-02-17T03:14:26.022Z,20.51
2019-02-17T03:16:54.751Z,20.49
2019-02-17T03:19:23.586Z,20.48
2019-02-17T03:21:52.398Z,20.47
2019-02-17T03:24:21.220Z,20.45
2019-02-17T03:26:50.065Z,20.43
2019-02-17T03:29:18.857Z,20.41
2019-02-17T03:31:47.790Z,20.41
2019-02-17T03:34:16.495Z,20.38
2019-02-17T03:36:45.255Z,20.36
2019-02-17T03:39:14.171Z,20.35
2019-02-17T03:41:42.972Z,20.33
2019-02-17T03:44:11.734Z,20.32
2019-02-17T03:46:40.643Z,20.29
2019-02-17T03:49:09.454Z,20.27
2019-02-17T03:51:38.309Z,20.25
2019-02-17T03:54:07.077Z,20.24
2019-02-17T03:56:35.897Z,20.22
2019-02-17T03:59:04.615Z,20.20
2019-02-17T04:01:33.413Z,20.18
2019-02-17T04:04:02.352Z,20.16
2019-02-17T04:06:31.087Z,20.15
2019-02-17T04:08:59.975Z,20.14
2019-02-17T04:11:28.845Z,20.12
2019-02-17T04:13:57.659Z,20.11
2019-02-17T04:16:26.605Z,20.09
2019-02-17T04:18:55.429Z,20.08
2019-02-17T04:21:24.323Z,20.07
2019-02-17T04:23:53.077Z,20.05
2019-02-17T04:26:21.981Z,20.03
2019-02-17T04:28:50.875Z,20.02
2019-02-17T04:31:19.716Z,20.00
2019-02-17T04:33:48.480Z,19.99
2019-02-17T04:36:17.356Z,19.97
2019-02-17T04:38:46.164Z,19.95
2019-02-17T04:41:14.894Z,19.54
2019-02-17T04:43:43.659Z,19.92
2019-02-17T04:46:12.400Z,19.91
2019-02-17T04:48:41.367Z,19.89
2019-02-17T04:51:10.326Z,19.88
2019-02-17T04:53:39.196Z,19.86
2019-02-17T04:56:08.093Z,19.85
2019-02-17T04:58:36.871Z,19.84
2019-02-17T05:01:05.724Z,19.83
2019-02-17T05:03:34.456Z,19.82
2019-02-17T05:06:03.288Z,19.79
2019-02-17T05:08:32.184Z,19.79
2019-02-17T05:11:00.888Z,19.78
2019-02-17T05:13:29.789Z,19.76
2019-02-17T05:15:58.599Z,19.75
2019-02-17T05:18:27.514Z,19.74
2019-02-17T05:20:56.309Z,19.72
2019-02-17T05:23:25.118Z,19.71
2019-02-17T05:25:53.884Z,19.69
2019-02-17T05:28:22.677Z,19.69
2019-02-17T05:30:53.234Z,19.68
2019-02-17T05:33:22.040Z,19.67
2019-02-17T05:35:50.884Z,19.65
2019-02-17T05:38:19.591Z,19.63
2019-02-17T05:40:48.407Z,19.62
2019-02-17T05:43:17.291Z,19.60
2019-02-17T05:45:46.079Z,19.59
2019-02-17T05:48:14.908Z,19.57
2019-02-17T05:50:43.785Z,19.56
2019-02-17T05:53:12.535Z,19.47
2019-02-17T05:55:41.329Z,19.55
2019-02-17T05:58:10.083Z,19.52
2019-02-17T06:00:39.588Z,19.51
2019-02-17T06:03:08.344Z,19.51
2019-02-17T06:05:37.170Z,19.52
2019-02-17T06:08:05.884Z,19.51
2019-02-17T06:10:34.636Z,19.51
2019-02-17T06:13:03.439Z,19.51
2019-02-17T06:15:32.223Z,19.51
2019-02-17T06:18:01.094Z,19.49
2019-02-17T06:20:29.909Z,19.49
2019-02-17T06:22:58.788Z,19.49
2019-02-17T06:25:27.577Z,19.48
2019-02-17T06:27:56.484Z,19.47
2019-02-17T06:30:25.286Z,19.46
2019-02-17T06:32:54.182Z,19.47
2019-02-17T06:35:22.982Z,19.46
2019-02-17T06:37:51.727Z,19.45
2019-02-17T06:40:20.665Z,19.44
2019-02-17T06:42:49.489Z,19.44
2019-02-17T06:45:19.718Z,19.43
2019-02-17T06:47:48.812Z,19.42
2019-02-17T06:50:17.707Z,19.41
2019-02-17T06:52:46.513Z,19.42
2019-02-17T06:55:23.594Z,19.42
2019-02-17T06:57:52.447Z,19.39
2019-02-17T07:00:31.335Z,19.39
2019-02-17T07:03:00.204Z,19.39
2019-02-17T07:05:37.207Z,19.38
2019-02-17T07:08:05.940Z,19.37
2019-02-17T07:10:34.669Z,19.37
2019-02-17T07:13:03.531Z,19.39
2019-02-17T07:15:32.369Z,19.38
2019-02-17T07:18:01.122Z,19.38
2019-02-17T07:20:30.001Z,19.37
2019-02-17T07:22:58.959Z,19.37
2019-02-17T07:25:30.383Z,19.39
2019-02-17T07:27:58.277Z,19.37
2019-02-17T07:30:27.160Z,19.38
2019-02-17T07:32:56.049Z,19.39
2019-02-17T07:35:24.814Z,19.38
2019-02-17T07:37:53.550Z,19.38
2019-02-17T07:40:22.416Z,19.40
2019-02-17T07:42:51.313Z,19.40
2019-02-17T07:45:20.102Z,19.43
2019-02-17T07:47:48.944Z,19.46
2019-02-17T07:50:17.810Z,19.45
2019-02-17T07:52:46.750Z,19.47
2019-02-17T07:55:15.624Z,19.55
2019-02-17T07:57:44.374Z,19.63
2019-02-17T08:00:13.274Z,19.69
2019-02-17T08:02:42.107Z,19.75
2019-02-17T08:05:10.849Z,19.83
2019-02-17T08:07:39.670Z,19.91
2019-02-17T08:10:08.630Z,20.01
2019-02-17T08:12:37.505Z,20.09
2019-02-17T08:15:07.379Z,20.18
2019-02-17T08:17:36.286Z,20.25
2019-02-17T08:20:05.850Z,20.35
2019-02-17T08:22:34.671Z,20.42
2019-02-17T08:25:03.623Z,20.48
2019-02-17T08:27:32.458Z,20.51
2019-02-17T08:30:01.342Z,20.52
2019-02-17T08:32:30.191Z,20.54
2019-02-17T08:34:59.002Z,20.56
2019-02-17T08:37:27.821Z,20.65
2019-02-17T08:39:56.731Z,20.72
2019-02-17T08:42:25.718Z,20.77
2019-02-17T08:44:54.671Z,20.81
2019-02-17T08:47:23.440Z,20.84
2019-02-17T08:49:52.409Z,20.84
2019-02-17T08:52:21.330Z,20.85
2019-02-17T08:54:50.176Z,20.85
2019-02-17T08:57:19.005Z,20.86
2019-02-17T08:59:47.927Z,20.86
2019-02-17T09:02:16.807Z,20.80
2019-02-17T09:04:45.760Z,20.69
2019-02-17T09:07:14.501Z,20.57
2019-02-17T09:09:43.424Z,20.47
2019-02-17T09:12:18.597Z,20.09
2019-02-17T09:14:47.529Z,19.74
2019-02-17T09:17:16.370Z,19.63
2019-02-17T09:19:45.242Z,19.55
2019-02-17T09:22:14.044Z,19.58
2019-02-17T09:24:42.930Z,19.58
2019-02-17T09:27:11.869Z,19.56
2019-02-17T09:29:40.788Z,19.43
2019-02-17T09:32:16.352Z,19.39
2019-02-17T09:34:40.323Z,19.41
2019-02-17T09:37:09.283Z,19.30
2019-02-17T09:39:38.124Z,19.21
2019-02-17T09:42:07.059Z,19.27
2019-02-17T09:44:36.013Z,19.29
2019-02-17T09:47:04.925Z,19.36
2019-02-17T09:49:33.820Z,19.19
2019-02-17T09:52:02.656Z,19.51
2019-02-17T09:54:31.418Z,19.57
2019-02-17T09:57:00.296Z,19.65
2019-02-17T09:59:29.208Z,19.77
2019-02-17T10:01:58.083Z,19.81
2019-02-17T10:04:27.044Z,19.85
2019-02-17T10:06:56.034Z,19.80
2019-02-17T10:09:25.056Z,19.77
2019-02-17T10:11:54.363Z,19.77
2019-02-17T10:14:23.883Z,19.78
2019-02-17T10:16:52.736Z,19.83
2019-02-17T10:19:21.696Z,19.85
2019-02-17T10:21:50.644Z,19.87
2019-02-17T10:24:19.535Z,19.91
2019-02-17T10:26:48.454Z,19.99
2019-02-17T10:29:17.250Z,20.06
2019-02-17T10:31:46.319Z,20.12
2019-02-17T10:34:15.338Z,20.18
2019-02-17T10:36:44.285Z,20.13
2019-02-17T10:39:13.231Z,20.05
2019-02-17T10:41:42.255Z,20.04
2019-02-17T10:44:11.088Z,20.09
2019-02-17T10:46:40.005Z,20.16
2019-02-17T10:49:08.913Z,20.15
2019-02-17T10:51:37.819Z,20.18
2019-02-17T10:54:06.809Z,20.14
2019-02-17T10:56:35.748Z,20.17
2019-02-17T10:59:04.940Z,20.14
2019-02-17T11:01:33.858Z,20.11
2019-02-17T11:04:05.202Z,20.07
2019-02-17T11:06:34.223Z,20.05
2019-02-17T11:09:04.950Z,20.08
2019-02-17T11:11:34.189Z,20.00
2019-02-17T11:14:03.357Z,20.05
2019-02-17T11:16:32.448Z,20.03
2019-02-17T11:19:01.505Z,19.99
2019-02-17T11:21:30.477Z,19.94
2019-02-17T11:23:59.733Z,19.93
2019-02-17T11:26:28.576Z,19.96
2019-02-17T11:28:57.954Z,19.90
2019-02-17T11:31:29.294Z,19.94
2019-02-17T11:33:58.327Z,19.92
2019-02-17T11:36:27.341Z,19.93
2019-02-17T11:38:56.719Z,19.91
2019-02-17T11:41:25.619Z,19.92
2019-02-17T11:43:54.900Z,19.95
2019-02-17T11:46:23.972Z,19.95
2019-02-17T11:48:53.166Z,19.83
2019-02-17T11:51:21.973Z,19.62
2019-02-17T11:53:50.895Z,19.61
2019-02-17T11:56:20.291Z,19.65
2019-02-17T11:58:49.287Z,19.64
2019-02-17T12:01:18.151Z,19.63
2019-02-17T12:03:47.259Z,19.63
2019-02-17T12:06:16.269Z,19.56
2019-02-17T12:08:48.027Z,19.44
2019-02-17T12:11:17.531Z,19.45
2019-02-17T12:13:46.442Z,19.44
2019-02-17T12:16:15.343Z,19.14
2019-02-17T12:18:44.310Z,19.47
2019-02-17T12:21:34.962Z,19.48
2019-02-17T12:24:18.466Z,19.52
2019-02-17T12:27:18.449Z,19.46
2019-02-17T12:29:54.284Z,19.53
2019-02-17T12:32:28.552Z,19.58
2019-02-17T12:34:57.568Z,19.63
2019-02-17T12:37:26.578Z,19.64
2019-02-17T12:39:55.543Z,19.64
2019-02-17T12:42:24.647Z,19.59
2019-02-17T12:44:53.686Z,19.57
2019-02-17T12:47:23.353Z,19.54
2019-02-17T12:49:52.587Z,19.57
2019-02-17T12:52:21.862Z,19.59
2019-02-17T12:54:50.812Z,19.59
2019-02-17T12:57:19.754Z,19.56
2019-02-17T12:59:48.773Z,19.61
2019-02-17T13:02:18.013Z,19.61
2019-02-17T13:04:47.006Z,19.60
2019-02-17T13:07:15.923Z,19.62
2019-02-17T13:09:45.105Z,19.61
2019-02-17T13:12:14.125Z,19.60
2019-02-17T13:14:43.314Z,19.64
2019-02-17T13:17:12.245Z,19.63
2019-02-17T13:19:41.440Z,19.65
2019-02-17T13:22:10.327Z,19.65
2019-02-17T13:24:39.182Z,19.67
2019-02-17T13:27:08.030Z,19.66
2019-02-17T13:29:36.940Z,19.64
2019-02-17T13:32:05.867Z,19.64
2019-02-17T13:34:34.856Z,19.64
2019-02-17T13:37:03.689Z,19.66
2019-02-17T13:39:32.677Z,19.64
2019-02-17T13:42:01.650Z,19.64
2019-02-17T13:44:30.723Z,19.63
2019-02-17T13:46:59.676Z,19.61
2019-02-17T13:49:28.689Z,19.59
2019-02-17T13:51:57.659Z,19.57
2019-02-17T13:54:26.627Z,19.55
2019-02-17T13:56:55.471Z,19.55
2019-02-17T13:59:24.442Z,19.55
2019-02-17T14:01:53.403Z,19.55
2019-02-17T14:04:22.387Z,19.53
2019-02-17T14:06:51.366Z,19.51
2019-02-17T14:09:20.287Z,19.50
2019-02-17T14:11:49.111Z,19.48
2019-02-17T14:14:18.026Z,19.47
2019-02-17T14:16:47.006Z,19.45
2019-02-17T14:19:15.963Z,19.41
2019-02-17T14:21:44.870Z,19.39
2019-02-17T14:24:13.758Z,19.36
2019-02-17T14:26:42.997Z,19.35
2019-02-17T14:29:11.918Z,19.35
2019-02-17T14:31:40.840Z,19.35
2019-02-17T14:34:09.648Z,19.39
2019-02-17T14:36:38.486Z,19.44
2019-02-17T14:39:07.494Z,19.49
2019-02-17T14:41:36.297Z,19.54
2019-02-17T14:44:05.420Z,19.59
2019-02-17T14:46:34.382Z,19.63
2019-02-17T14:49:03.280Z,19.67
2019-02-17T14:51:32.409Z,19.67
2019-02-17T14:54:01.294Z,19.59
2019-02-17T14:56:30.180Z,19.56
2019-02-17T14:58:59.014Z,19.56
2019-02-17T15:01:28.132Z,19.55
2019-02-17T15:03:57.138Z,19.53
2019-02-17T15:06:26.088Z,19.52
2019-02-17T15:08:55.173Z,19.50
2019-02-17T15:11:24.115Z,19.48
2019-02-17T15:13:53.078Z,19.45
2019-02-17T15:16:22.079Z,19.43
2019-02-17T15:18:51.109Z,19.41
2019-02-17T15:21:20.171Z,19.36
2019-02-17T15:23:49.045Z,19.31
2019-02-17T15:26:17.984Z,19.27
2019-02-17T15:28:50.936Z,19.23
2019-02-17T15:31:17.511Z,19.21
2019-02-17T15:33:47.022Z,19.20
2019-02-17T15:36:15.915Z,19.19
2019-02-17T15:38:45.036Z,19.18
2019-02-17T15:41:13.965Z,19.16
2019-02-17T15:43:45.357Z,19.15
2019-02-17T15:46:13.637Z,19.12
2019-02-17T15:48:42.600Z,19.12
2019-02-17T15:51:11.895Z,19.10
2019-02-17T15:53:40.866Z,19.08
2019-02-17T15:56:10.037Z,19.08
2019-02-17T15:58:39.653Z,19.12
2019-02-17T16:01:08.749Z,19.26
2019-02-17T16:03:37.660Z,19.69
2019-02-17T16:06:06.641Z,20.22
2019-02-17T16:08:35.642Z,20.75
2019-02-17T16:11:04.628Z,21.14
2019-02-17T16:13:33.573Z,21.44
2019-02-17T16:16:02.611Z,21.62
2019-02-17T16:18:31.741Z,21.75
2019-02-17T16:21:00.699Z,21.84
2019-02-17T16:23:29.609Z,21.91
2019-02-17T16:25:58.733Z,22.00
2019-02-17T16:28:27.761Z,22.06
2019-02-17T16:30:56.838Z,22.08
2019-02-17T16:33:26.039Z,22.10
2019-02-17T16:35:54.998Z,22.11
2019-02-17T16:38:24.001Z,22.08
2019-02-17T16:40:53.227Z,21.97
2019-02-17T16:43:23.343Z,22.02
2019-02-17T16:45:52.781Z,22.02
2019-02-17T16:48:22.356Z,22.13
2019-02-17T16:50:51.983Z,22.29
2019-02-17T16:53:21.382Z,22.42
2019-02-17T16:55:51.146Z,22.62
2019-02-17T16:58:20.507Z,22.71
2019-02-17T17:00:49.600Z,22.75
2019-02-17T17:03:19.378Z,22.75
2019-02-17T17:05:49.155Z,22.81
2019-02-17T17:08:18.499Z,22.87
2019-02-17T17:10:48.724Z,22.88
2019-02-17T17:13:18.571Z,22.90
2019-02-17T17:15:49.138Z,22.94
2019-02-17T17:18:18.635Z,22.96
2019-02-17T17:20:48.207Z,22.99
2019-02-17T17:23:17.327Z,23.02
2019-02-17T17:25:47.088Z,22.99
2019-02-17T17:28:16.101Z,23.00
2019-02-17T17:30:45.391Z,22.98
2019-02-17T17:33:15.325Z,22.94
2019-02-17T17:35:44.751Z,22.90
2019-02-17T17:38:14.055Z,22.85
2019-02-17T17:40:43.482Z,22.78
2019-02-17T17:43:13.973Z,22.63
2019-02-17T17:45:43.767Z,22.58
2019-02-17T17:48:13.433Z,22.53
2019-02-17T17:50:43.304Z,22.44
2019-02-17T17:53:13.320Z,22.34
2019-02-17T17:55:43.252Z,22.25
2019-02-17T17:58:13.188Z,22.19
2019-02-17T18:00:43.538Z,22.18
2019-02-17T18:03:13.259Z,22.21
2019-02-17T18:05:42.392Z,22.24
2019-02-17T18:08:12.561Z,22.23
2019-02-17T18:10:42.773Z,22.21
2019-02-17T18:13:15.333Z,22.16
2019-02-17T18:15:45.863Z,22.09
2019-02-17T18:18:16.020Z,22.01
2019-02-17T18:20:45.312Z,21.99
2019-02-17T18:23:15.812Z,21.96
2019-02-17T18:25:48.383Z,21.90
2019-02-17T18:28:17.718Z,21.86
2019-02-17T18:30:48.335Z,21.78
2019-02-17T18:33:18.202Z,21.78
2019-02-17T18:35:49.344Z,21.79
2019-02-17T18:38:19.392Z,21.81
2019-02-17T18:40:50.137Z,21.78
2019-02-17T18:43:19.971Z,21.79
2019-02-17T18:45:50.141Z,21.75
2019-02-17T18:48:20.662Z,21.62
2019-02-17T18:50:58.991Z,21.60
2019-02-17T18:53:23.175Z,21.59
2019-02-17T18:55:53.463Z,21.59
2019-02-17T18:58:24.031Z,21.60
2019-02-17T19:00:54.422Z,21.57
2019-02-17T19:03:24.927Z,21.56
2019-02-17T19:05:55.128Z,21.56
2019-02-17T19:08:28.069Z,21.58
2019-02-17T19:10:59.296Z,21.66
2019-02-17T19:13:30.073Z,21.69
2019-02-17T19:16:01.186Z,21.72
2019-02-17T19:18:31.652Z,21.70
2019-02-17T19:21:03.365Z,21.71
2019-02-17T19:23:33.824Z,21.73
2019-02-17T19:26:04.817Z,21.75
2019-02-17T19:28:35.219Z,21.76
2019-02-17T19:31:05.091Z,21.77
2019-02-17T19:33:35.304Z,21.80
2019-02-17T19:36:05.541Z,21.82
2019-02-17T19:38:36.196Z,21.84
2019-02-17T19:41:06.038Z,21.88
2019-02-17T19:43:38.577Z,21.97
2019-02-17T19:46:09.409Z,22.01
2019-02-17T19:48:40.485Z,22.06
2019-02-17T19:51:11.109Z,22.08
2019-02-17T19:53:41.677Z,22.08
2019-02-17T19:56:11.792Z,22.11
2019-02-17T19:58:41.780Z,22.17
2019-02-17T20:01:12.001Z,22.21
2019-02-17T20:03:59.007Z,22.25
2019-02-17T20:06:29.427Z,22.30
2019-02-17T20:09:00.335Z,22.33
2019-02-17T20:11:30.338Z,22.35
2019-02-17T20:14:00.750Z,22.34
2019-02-17T20:16:31.005Z,22.36
2019-02-17T20:19:02.348Z,22.37
2019-02-17T20:21:32.697Z,22.37
2019-02-17T20:24:03.023Z,22.36
2019-02-17T20:26:33.184Z,22.36
2019-02-17T20:29:03.708Z,22.35
2019-02-17T20:31:34.136Z,22.33
2019-02-17T20:34:04.020Z,22.34
2019-02-17T20:36:33.864Z,22.31
2019-02-17T20:39:04.794Z,22.30
2019-02-17T20:41:34.140Z,22.32
2019-02-17T20:44:04.316Z,22.36
2019-02-17T20:46:34.482Z,22.37
2019-02-17T20:49:04.607Z,22.46
2019-02-17T20:51:35.943Z,22.54
2019-02-17T20:54:05.602Z,22.52
2019-02-17T20:56:36.186Z,22.60
2019-02-17T20:59:06.478Z,22.71
2019-02-17T21:01:36.463Z,22.79
2019-02-17T21:04:05.969Z,22.86
2019-02-17T21:06:36.306Z,22.92
2019-02-17T21:09:06.983Z,22.96
2019-02-17T21:11:37.044Z,23.03
2019-02-17T21:14:06.883Z,23.06
2019-02-17T21:16:36.752Z,23.09
2019-02-17T21:19:06.284Z,23.11
2019-02-17T21:21:35.484Z,23.14
2019-02-17T21:24:04.669Z,23.16
2019-02-17T21:26:34.060Z,23.17
2019-02-17T21:29:03.170Z,23.19
2019-02-17T21:31:33.165Z,23.21
2019-02-17T21:34:02.127Z,23.20
2019-02-17T21:36:31.603Z,23.18
2019-02-17T21:39:01.098Z,23.17
2019-02-17T21:41:30.164Z,23.17
2019-02-17T21:43:59.182Z,23.12
2019-02-17T21:46:28.250Z,23.10
2019-02-17T21:48:57.199Z,23.09
2019-02-17T21:51:26.482Z,23.07
2019-02-17T21:53:55.563Z,23.06
2019-02-17T21:56:24.459Z,23.03
2019-02-17T21:58:53.311Z,23.02
2019-02-17T22:01:22.325Z,23.01
2019-02-17T22:03:51.374Z,22.90
2019-02-17T22:06:20.209Z,22.88
2019-02-17T22:08:49.946Z,22.84
2019-02-17T22:11:18.953Z,22.81
2019-02-17T22:13:48.258Z,22.77
2019-02-17T22:16:17.134Z,22.73
2019-02-17T22:18:47.672Z,22.68
2019-02-17T22:21:16.528Z,22.64
2019-02-17T22:23:48.650Z,22.57
2019-02-17T22:26:17.670Z,22.53
2019-02-17T22:28:46.821Z,22.49
2019-02-17T22:31:15.788Z,22.44
2019-02-17T22:33:44.660Z,22.37
2019-02-17T22:36:13.619Z,22.35
2019-02-17T22:38:42.405Z,22.31
2019-02-17T22:41:11.382Z,22.27
2019-02-17T22:43:40.283Z,22.20
2019-02-17T22:46:09.172Z,22.13
2019-02-17T22:48:38.127Z,22.11
2019-02-17T22:51:06.987Z,22.07
2019-02-17T22:53:43.337Z,22.04
2019-02-17T22:56:06.601Z,22.03
2019-02-17T22:58:35.528Z,21.99
2019-02-17T23:01:09.085Z,21.94
2019-02-17T23:03:37.876Z,21.92
2019-02-17T23:06:06.837Z,21.88
2019-02-17T23:08:35.799Z,21.85
2019-02-17T23:11:04.671Z,21.83
2019-02-17T23:13:33.558Z,21.79
2019-02-17T23:16:02.478Z,21.77
2019-02-17T23:18:31.350Z,21.73
2019-02-17T23:21:00.148Z,21.70
2019-02-17T23:23:28.983Z,21.67
2019-02-17T23:25:57.946Z,21.65
2019-02-17T23:28:26.846Z,21.61
2019-02-17T23:30:55.692Z,21.58
2019-02-17T23:33:24.600Z,21.54
2019-02-17T23:35:53.524Z,21.52
2019-02-17T23:38:22.262Z,21.49
2019-02-17T23:40:51.049Z,21.47
2019-02-17T23:43:19.913Z,21.43
2019-02-17T23:45:48.664Z,21.39
2019-02-17T23:48:17.500Z,21.36
2019-02-17T23:50:46.299Z,21.33
2019-02-17T23:53:15.107Z,21.31
2019-02-17T23:55:44.093Z,21.28
2019-02-17T23:58:12.953Z,21.26
